createdAt,value
2023-05-19T00:00:03.665Z,81.34
2023-05-19T00:05:03.444Z,81.82
2023-05-19T00:10:03.247Z,82.12
2023-05-19T00:15:03.226Z,82.92
2023-05-19T00:20:03.506Z,82.96
2023-05-19T00:25:03.068Z,83.36
2023-05-19T00:30:02.884Z,84.36
2023-05-19T00:35:03.574Z,85
2023-05-19T00:40:03.542Z,85.24
2023-05-19T00:45:03.316Z,85.35
2023-05-19T00:50:03.008Z,86.18
2023-05-19T00:55:03.022Z,86.5
2023-05-19T01:00:03.545Z,86.55
2023-05-19T01:05:02.814Z,86.47
2023-05-19T01:10:03.566Z,86.2
2023-05-19T01:15:03.727Z,86.31
2023-05-19T01:20:03.408Z,86.72
2023-05-19T01:25:03.221Z,86.68
2023-05-19T01:30:03.341Z,87.12
2023-05-19T01:35:02.944Z,87.42
2023-05-19T01:40:02.552Z,87.71
2023-05-19T01:45:02.759Z,88.12
2023-05-19T01:50:03.407Z,87.97
2023-05-19T01:55:03.605Z,89.73
2023-05-19T02:00:03.166Z,90.76
2023-05-19T02:05:02.861Z,90.86
2023-05-19T02:10:02.713Z,91.65
2023-05-19T02:15:03.496Z,92.44
2023-05-19T02:20:03.389Z,92.62
2023-05-19T02:25:03.029Z,92.3
2023-05-19T02:30:02.868Z,92.02
2023-05-19T02:35:03.545Z,92.97
2023-05-19T02:40:03.414Z,93.37
2023-05-19T02:45:03.084Z,93.75
2023-05-19T02:50:02.849Z,94.53
2023-05-19T02:55:04.258Z,94.55
2023-05-19T03:00:03.380Z,95.19
2023-05-19T03:05:03.294Z,95.01
2023-05-19T03:10:03.360Z,95.28
2023-05-19T03:15:03.211Z,95.76
2023-05-19T03:20:03.115Z,96.36
2023-05-19T03:25:02.900Z,96.22
2023-05-19T03:30:06.957Z,96.34
2023-05-19T03:35:02.791Z,96.41
2023-05-19T03:40:03.538Z,96.76
2023-05-19T03:45:03.218Z,96.84
2023-05-19T03:50:02.852Z,96.86
2023-05-19T03:55:02.943Z,97.07
2023-05-19T04:00:03.387Z,96.82
2023-05-19T04:05:03.179Z,96.23
2023-05-19T04:10:02.487Z,96.11
2023-05-19T04:15:03.197Z,96.51
2023-05-19T04:20:02.881Z,95.8
2023-05-19T04:25:02.882Z,95.5
2023-05-19T04:30:02.697Z,94.89
2023-05-19T04:35:03.363Z,94.45
2023-05-19T04:40:03.200Z,94.66
2023-05-19T04:45:02.991Z,93.88
2023-05-19T04:50:02.729Z,93.83
2023-05-19T04:55:03.493Z,93.3
2023-05-19T05:00:03.114Z,92.97
2023-05-19T05:05:02.824Z,92.52
2023-05-19T05:10:04.275Z,90.09
2023-05-19T05:15:03.307Z,89.23
2023-05-19T05:20:03.495Z,87.33
2023-05-19T05:25:02.953Z,85.71
2023-05-19T05:30:03.494Z,84.08
2023-05-19T05:35:03.297Z,81.69
2023-05-19T05:40:02.987Z,79.89
2023-05-19T05:45:03.406Z,79.7
2023-05-19T05:50:03.096Z,77.64
2023-05-19T05:55:03.263Z,74.31
2023-05-19T06:00:02.896Z,76.64
2023-05-19T06:05:02.902Z,76.68
2023-05-19T06:10:03.414Z,75.02
2023-05-19T06:15:03.117Z,75.59
2023-05-19T06:20:03.007Z,74.49
2023-05-19T06:25:03.450Z,72.6
2023-05-19T06:30:03.245Z,66.35
2023-05-19T06:35:02.955Z,59.27
2023-05-19T06:40:02.547Z,58.79
2023-05-19T06:45:02.718Z,58.19
2023-05-19T06:50:03.390Z,53.6
2023-05-19T06:55:03.486Z,56.21
2023-05-19T07:00:02.914Z,51.86
2023-05-19T07:05:02.892Z,54.52
2023-05-19T07:10:02.710Z,55.59
2023-05-19T07:15:02.676Z,56.42
2023-05-19T07:20:03.444Z,57.83
2023-05-19T07:25:03.131Z,55.15
2023-05-19T07:30:02.811Z,54.51
2023-05-19T07:35:03.100Z,52.76
2023-05-19T07:40:02.923Z,54.55
2023-05-19T07:45:02.803Z,54.3
2023-05-19T07:50:02.782Z,52.1
2023-05-19T07:55:03.648Z,53.24
2023-05-19T08:00:02.681Z,52.66
2023-05-19T08:05:02.729Z,55.35
2023-05-19T08:10:03.425Z,56.51
2023-05-19T08:15:03.156Z,52.12
2023-05-19T08:20:02.884Z,51.4
2023-05-19T08:25:03.549Z,49.82
2023-05-19T08:30:03.399Z,48.95
2023-05-19T08:35:03.053Z,46.01
2023-05-19T08:40:02.866Z,49.9
2023-05-19T08:45:02.738Z,46.69
2023-05-19T08:50:03.343Z,49.17
2023-05-19T08:55:03.900Z,47.45
2023-05-19T09:00:03.001Z,44.47
2023-05-19T09:05:02.405Z,44.75
2023-05-19T09:10:03.496Z,43.67
2023-05-19T09:15:03.565Z,45.24
2023-05-19T09:20:03.379Z,45.67
2023-05-19T09:25:03.152Z,44.23
2023-05-19T09:30:02.888Z,43.41
2023-05-19T09:35:02.696Z,45.22
2023-05-19T09:40:03.401Z,44.89
2023-05-19T09:45:03.556Z,47
2023-05-19T09:50:03.107Z,42.55
2023-05-19T09:55:03.102Z,45.2
2023-05-19T10:00:02.872Z,45.04
2023-05-19T10:05:03.846Z,46.64
2023-05-19T10:10:03.493Z,45.61
2023-05-19T10:15:03.527Z,45.82
2023-05-19T10:20:03.344Z,44.66
2023-05-19T10:25:03.073Z,45.11
2023-05-19T10:30:02.803Z,45.11
2023-05-19T10:35:03.500Z,45.63
2023-05-19T10:40:03.219Z,46.19
2023-05-19T10:45:03.444Z,47.66
2023-05-19T10:50:03.114Z,47.34
2023-05-19T10:55:03.363Z,44.52
2023-05-19T11:00:03.584Z,44.08
2023-05-19T11:05:02.580Z,45.18
2023-05-19T11:10:03.559Z,44.28
2023-05-19T11:15:03.316Z,43.34
2023-05-19T11:20:03.047Z,42.99
2023-05-19T11:25:02.892Z,42.83
2023-05-19T11:30:02.402Z,43.73
2023-05-19T11:35:03.757Z,43.68
2023-05-19T11:40:03.133Z,41.66
2023-05-19T11:45:02.819Z,41.64
2023-05-19T11:50:04.246Z,41.47
2023-05-19T11:55:04.164Z,41.58
2023-05-19T12:00:03.723Z,41.41
2023-05-19T12:05:03.506Z,41.23
2023-05-19T12:10:03.178Z,40.81
2023-05-19T12:15:03.105Z,40.49
2023-05-19T12:20:02.756Z,44.46
2023-05-19T12:25:02.927Z,40.43
2023-05-19T12:30:03.585Z,43.1
2023-05-19T12:35:03.320Z,42.35
2023-05-19T12:40:03.093Z,42.4
2023-05-19T12:45:03.908Z,42.07
2023-05-19T12:50:02.739Z,41.32
2023-05-19T12:55:04.983Z,42.31
2023-05-19T13:00:03.529Z,44.33
2023-05-19T13:05:03.171Z,42.17
2023-05-19T13:10:03.048Z,38.64
2023-05-19T13:15:02.967Z,37.54
2023-05-19T13:20:02.743Z,42.07
2023-05-19T13:25:03.448Z,40.09
2023-05-19T13:30:03.668Z,41.63
2023-05-19T13:35:03.252Z,40.35
2023-05-19T13:40:03.398Z,41.07
2023-05-19T13:45:03.398Z,39.7
2023-05-19T13:50:03.058Z,38.99
2023-05-19T13:55:02.957Z,40.51
2023-05-19T14:00:03.958Z,39.54
2023-05-19T14:05:03.319Z,39.89
2023-05-19T14:10:03.093Z,43.37
2023-05-19T14:15:02.901Z,42.92
2023-05-19T14:20:02.851Z,39.6
2023-05-19T14:25:02.676Z,39.13
2023-05-19T14:30:03.409Z,40.48
2023-05-19T14:35:02.967Z,40.47
2023-05-19T14:40:02.891Z,42.52
2023-05-19T14:45:02.679Z,44.79
2023-05-19T14:50:02.859Z,42.64
2023-05-19T14:55:04.764Z,43.6
2023-05-19T15:00:03.366Z,45.36
2023-05-19T15:05:03.111Z,45.1
2023-05-19T15:10:02.979Z,47.11
2023-05-19T15:15:03.128Z,44.93
2023-05-19T15:20:03.057Z,46.69
2023-05-19T15:25:03.543Z,46.82
2023-05-19T15:30:03.247Z,45.48
2023-05-19T15:35:02.872Z,47.69
2023-05-19T15:40:03.002Z,49.64
2023-05-19T15:45:02.746Z,50.08
2023-05-19T15:50:02.627Z,50.67
2023-05-19T15:55:03.719Z,51.22
2023-05-19T16:00:03.093Z,51.39
2023-05-19T16:05:02.608Z,50.22
2023-05-19T16:10:02.851Z,49.88
2023-05-19T16:15:04.045Z,50.2
2023-05-19T16:20:03.046Z,50.73
2023-05-19T16:25:03.014Z,50.46
2023-05-19T16:30:02.785Z,51.04
2023-05-19T16:35:03.468Z,53.05
2023-05-19T16:40:03.158Z,51.8
2023-05-19T16:45:02.937Z,51.72
2023-05-19T16:50:02.639Z,52.3
2023-05-19T16:55:03.996Z,52.64
2023-05-19T17:00:03.203Z,52.72
2023-05-19T17:05:05.241Z,51.51
2023-05-19T17:10:02.827Z,52.57
2023-05-19T17:15:02.662Z,52.98
2023-05-19T17:20:03.614Z,53.25
2023-05-19T17:25:03.040Z,54.05
2023-05-19T17:30:02.951Z,53.93
2023-05-19T17:35:02.652Z,55.03
2023-05-19T17:40:03.398Z,56.02
2023-05-19T17:45:03.141Z,57.56
2023-05-19T17:50:02.840Z,56.72
2023-05-19T17:55:03.733Z,56.65
2023-05-19T18:00:03.242Z,56.8
2023-05-19T18:05:03.264Z,56.69
2023-05-19T18:10:03.303Z,57.34
2023-05-19T18:15:03.069Z,58.21
2023-05-19T18:20:02.810Z,57.83
2023-05-19T18:25:03.470Z,58.42
2023-05-19T18:30:03.256Z,58.63
2023-05-19T18:35:03.027Z,58.61
2023-05-19T18:40:03.100Z,58.34
2023-05-19T18:45:02.257Z,59.7
2023-05-19T18:50:03.464Z,60.49
2023-05-19T18:55:03.424Z,59.98
2023-05-19T19:00:02.992Z,60.82
2023-05-19T19:05:02.710Z,61.58
2023-05-19T19:10:03.333Z,61.8
2023-05-19T19:15:03.268Z,61.96
2023-05-19T19:20:03.255Z,62.36
2023-05-19T19:25:02.642Z,63.14
2023-05-19T19:30:03.490Z,63.25
2023-05-19T19:35:03.293Z,63.06
2023-05-19T19:40:03.056Z,63.81
2023-05-19T19:45:02.840Z,63.51
2023-05-19T19:50:02.574Z,64
2023-05-19T19:55:03.845Z,63.97
2023-05-19T20:00:03.342Z,64.59
2023-05-19T20:05:03.090Z,64.83
2023-05-19T20:10:02.783Z,65.13
2023-05-19T20:15:03.607Z,65.55
2023-05-19T20:20:03.308Z,66.56
2023-05-19T20:25:03.304Z,66.56
2023-05-19T20:30:03.249Z,66.73
2023-05-19T20:35:03.217Z,67.33
2023-05-19T20:40:03.096Z,67.53
2023-05-19T20:45:02.974Z,67.85
2023-05-19T20:50:03.058Z,68.64
2023-05-19T20:55:03.540Z,69.23
2023-05-19T21:00:03.613Z,69.58
2023-05-19T21:05:02.960Z,70.1
2023-05-19T21:10:02.981Z,70.48
2023-05-19T21:15:02.883Z,70.74
2023-05-19T21:20:02.699Z,71.03
2023-05-19T21:25:02.914Z,71.39
2023-05-19T21:30:02.963Z,71.75
2023-05-19T21:35:03.836Z,71.99
2023-05-19T21:40:03.398Z,71.83
2023-05-19T21:45:03.080Z,72.28
2023-05-19T21:50:02.802Z,72.19
2023-05-19T21:55:04.353Z,72.95
2023-05-19T22:00:03.421Z,73.01
2023-05-19T22:05:03.173Z,73.23
2023-05-19T22:10:02.940Z,73.49
2023-05-19T22:15:02.769Z,73.61
2023-05-19T22:20:03.553Z,73.44
2023-05-19T22:25:03.307Z,74.39
2023-05-19T22:30:03.116Z,74.28
2023-05-19T22:35:02.940Z,75.29
2023-05-19T22:40:02.556Z,75.39
2023-05-19T22:45:02.809Z,76.32
2023-05-19T22:50:02.794Z,76.48
2023-05-19T22:55:03.664Z,76.76
2023-05-19T23:00:03.175Z,77.34
2023-05-19T23:05:03.000Z,77.37
2023-05-19T23:10:03.040Z,78.25
2023-05-19T23:15:02.666Z,78.13
2023-05-19T23:20:02.616Z,78.37
2023-05-19T23:25:03.032Z,79.14
2023-05-19T23:30:02.768Z,79.44
2023-05-19T23:35:03.008Z,79.57
2023-05-19T23:40:02.925Z,80.4
2023-05-19T23:45:03.156Z,80.65
2023-05-19T23:50:03.429Z,80.84
2023-05-19T23:55:03.518Z,81.09
